KJAQ

Westover Field Amador County Airport

Jackson, California, USA
METAR KJAQ 231155Z AUTO 34005KT 10SM CLR 12/02 A2997 RMK AO1 T01200020 10160 20120
Observed Flight Rules
Oct-23 @ 11:55 UTC (24 minutes ago) Visual Flight Rules
Wind Visibility Clouds
340° at 5 knots 10 miles
  • Clear skies
Temperatures Readings
Current 12°C / 54°F
Dewpoint 2°C / 36°F
Humidity 51%
Altimeter 29.97" Hg
Pressure 1015 hPa
Elevation 512
METAR KJAQ 231155Z AUTO 34005KT 10SM CLR 12/02 A2997 RMK AO1 T01200020 10160 20120
Observed Flight Rules
Oct-23 @ 11:55 UTC
(24 minutes ago)
VFR
Wind Visibility
340° at 5 knots 10 miles
Clouds
  • Clear skies
Temperature Dewpoint
12°C / 54°F 2°C / 36°F
Humidity Altimeter Pressure
51% 29.97" Hg 1015 hPa